Time;durP1;ratioP1;P1;durP2;ratioP2;P2;SDS_P1;SDS_P2;PMS_P1;PMS_P2;Temp;Humidity;BMP_temperature;BMP_pressure;BME280_temperature;BME280_humidity;BME280_pressure;Samples;Min_cycle;Max_cycle;Signal;HPM_P1;HPM_P2
2021/01/14 00:00:21;;;;;;;3.20;3.00;;;4.50;99.90;;;;;;5083232;28;20474;-76
2021/01/14 00:02:46;;;;;;;3.33;3.03;;;4.50;99.90;;;;;;5081260;28;20938;-76
2021/01/14 00:05:13;;;;;;;3.50;3.20;;;4.40;99.90;;;;;;5083802;28;20411;-76
2021/01/14 00:07:39;;;;;;;3.10;2.90;;;4.40;99.90;;;;;;5082512;28;20252;-76
2021/01/14 00:10:07;;;;;;;2.80;2.70;;;4.40;99.90;;;;;;5082474;28;20455;-76
2021/01/14 00:12:33;;;;;;;3.93;3.70;;;4.40;99.90;;;;;;5081546;28;20806;-76
2021/01/14 00:14:58;;;;;;;3.83;3.53;;;4.40;99.90;;;;;;5080167;28;20501;-76
2021/01/14 00:17:24;;;;;;;5.80;3.77;;;4.30;99.90;;;;;;5084266;28;20450;-76
2021/01/14 00:19:49;;;;;;;3.87;3.57;;;4.40;99.90;;;;;;5080715;28;20184;-76
2021/01/14 00:22:15;;;;;;;4.23;3.93;;;4.30;99.90;;;;;;5083997;28;20227;-76
2021/01/14 00:24:41;;;;;;;3.40;3.10;;;4.30;99.90;;;;;;5080396;28;20208;-76
2021/01/14 00:27:06;;;;;;;4.37;3.97;;;4.30;99.90;;;;;;5082648;28;20190;-76
2021/01/14 00:29:32;;;;;;;3.27;3.07;;;4.20;99.90;;;;;;5082719;28;20183;-76
2021/01/14 00:31:57;;;;;;;3.43;3.23;;;4.20;99.90;;;;;;5081446;28;20192;-76
2021/01/14 00:34:24;;;;;;;4.00;3.60;;;4.20;99.90;;;;;;5082562;28;20661;-76
2021/01/14 00:39:33;;;;;;;3.70;3.40;;;4.20;99.90;;;;;;5080106;28;20893;-76
2021/01/14 00:41:59;;;;;;;2.70;2.60;;;4.10;99.90;;;;;;5081858;28;20422;-76
2021/01/14 00:44:24;;;;;;;3.00;2.80;;;4.10;99.90;;;;;;5080684;28;20202;-76
2021/01/14 00:46:57;;;;;;;2.40;2.13;;;4.10;99.90;;;;;;5084001;28;20191;-76
2021/01/14 00:49:23;;;;;;;2.33;2.23;;;4.10;99.90;;;;;;5076719;28;20544;-76
2021/01/14 00:51:49;;;;;;;2.77;2.53;;;4.10;99.90;;;;;;5076397;28;20427;-76
2021/01/14 00:54:15;;;;;;;2.70;2.50;;;4.10;99.90;;;;;;5081555;28;20455;-76
2021/01/14 00:56:40;;;;;;;3.27;2.87;;;4.10;99.90;;;;;;5081603;28;20455;-76
2021/01/14 00:59:07;;;;;;;2.80;2.10;;;4.00;99.90;;;;;;5081670;28;20264;-76
2021/01/14 01:01:33;;;;;;;2.40;2.23;;;4.10;99.90;;;;;;5080595;28;20615;-77
2021/01/14 01:03:59;;;;;;;2.20;2.10;;;4.10;99.90;;;;;;5080612;28;20580;-76
2021/01/14 01:06:33;;;;;;;2.20;2.10;;;4.00;99.90;;;;;;5083295;28;20398;-76
2021/01/14 01:08:59;;;;;;;3.00;2.70;;;4.10;99.90;;;;;;5080431;28;20274;-76
2021/01/14 01:11:25;;;;;;;2.73;2.53;;;4.00;99.90;;;;;;5083292;28;20392;-76
2021/01/14 01:13:50;;;;;;;2.30;2.13;;;4.00;99.90;;;;;;5079880;28;20744;-77
2021/01/14 01:16:16;;;;;;;2.87;2.47;;;4.00;99.90;;;;;;5082952;28;20454;-77
2021/01/14 01:18:42;;;;;;;3.53;3.17;;;4.00;99.90;;;;;;5080655;28;20256;-77
2021/01/14 01:21:07;;;;;;;3.10;2.80;;;4.00;99.90;;;;;;5080302;28;20185;-76
2021/01/14 01:23:33;;;;;;;2.50;2.30;;;4.00;99.90;;;;;;5081897;28;20200;-77
2021/01/14 01:25:58;;;;;;;2.93;2.73;;;4.00;99.90;;;;;;5080591;28;20185;-76
2021/01/14 01:28:24;;;;;;;3.20;3.00;;;4.00;99.90;;;;;;5082975;28;20177;-77
2021/01/14 01:30:49;;;;;;;3.80;3.00;;;4.00;99.90;;;;;;5079590;28;20186;-76
2021/01/14 01:33:15;;;;;;;3.37;3.13;;;4.00;99.90;;;;;;5082697;28;20187;-78
2021/01/14 01:35:40;;;;;;;3.83;2.77;;;4.00;99.90;;;;;;5079315;28;20257;-76
2021/01/14 01:38:06;;;;;;;3.40;3.10;;;3.90;99.90;;;;;;5081491;28;20599;-76
2021/01/14 01:40:31;;;;;;;3.40;3.10;;;3.90;99.90;;;;;;5081751;28;20181;-76
2021/01/14 01:42:58;;;;;;;3.30;3.10;;;3.90;99.90;;;;;;5079937;28;20267;-76
2021/01/14 01:45:24;;;;;;;4.17;3.87;;;3.90;99.90;;;;;;5082902;28;20196;-77
2021/01/14 01:47:50;;;;;;;3.77;3.47;;;3.90;99.90;;;;;;5078412;28;21023;-76
2021/01/14 01:50:19;;;;;;;3.93;3.13;;;3.90;99.90;;;;;;5082485;28;20488;-77
2021/01/14 01:52:45;;;;;;;3.10;2.90;;;3.80;99.90;;;;;;5080174;28;20419;-76
2021/01/14 01:55:11;;;;;;;4.13;3.73;;;3.80;99.90;;;;;;5081205;28;20983;-76
2021/01/14 01:57:37;;;;;;;4.80;4.30;;;3.80;99.90;;;;;;5079782;28;20788;-76
2021/01/14 02:00:05;;;;;;;3.67;3.47;;;3.80;99.90;;;;;;5076764;28;20529;-76
2021/01/14 02:02:30;;;;;;;4.40;3.17;;;3.80;99.90;;;;;;5105262;28;20410;-77
2021/01/14 02:04:57;;;;;;;4.10;3.37;;;3.80;99.90;;;;;;5076532;28;20975;-77
2021/01/14 02:07:39;;;;;;;3.17;2.87;;;3.80;99.90;;;;;;5082936;28;20271;-77
2021/01/14 02:10:14;;;;;;;2.83;2.40;;;3.80;99.90;;;;;;5076755;28;20451;-76
2021/01/14 02:13:06;;;;;;;4.67;2.53;;;3.80;99.90;;;;;;5081783;28;20465;-76
2021/01/14 02:15:33;;;;;;;2.30;2.10;;;3.70;99.90;;;;;;5080405;28;20535;-76
2021/01/14 02:17:59;;;;;;;2.47;1.67;;;3.70;99.90;;;;;;5078072;28;20493;-77
2021/01/14 02:20:26;;;;;;;2.10;2.00;;;3.60;99.90;;;;;;5083008;28;20841;-77
2021/01/14 02:23:07;;;;;;;2.40;1.80;;;3.60;99.90;;;;;;5081036;28;20633;-76
2021/01/14 02:25:52;;;;;;;4.70;1.60;;;3.50;99.90;;;;;;5082641;28;20425;-76
2021/01/14 02:28:18;;;;;;;2.70;2.33;;;3.50;99.90;;;;;;5081671;28;20986;-77
2021/01/14 02:30:43;;;;;;;2.53;2.27;;;3.50;99.90;;;;;;5083326;28;20470;-76
2021/01/14 02:33:12;;;;;;;3.40;2.40;;;3.40;99.90;;;;;;5079153;28;20192;-77
2021/01/14 02:35:38;;;;;;;2.93;2.00;;;3.40;99.90;;;;;;5084426;28;20217;-77
2021/01/14 02:38:03;;;;;;;3.40;2.13;;;3.40;99.90;;;;;;5080660;28;20812;-76
2021/01/14 02:40:29;;;;;;;4.70;2.00;;;3.40;99.90;;;;;;5070905;28;20180;-77
2021/01/14 02:42:54;;;;;;;2.30;2.10;;;3.40;99.90;;;;;;5085023;28;20251;-76
2021/01/14 02:45:20;;;;;;;3.93;2.00;;;3.40;99.90;;;;;;5080699;28;20215;-76
2021/01/14 02:47:47;;;;;;;5.80;2.63;;;3.40;99.90;;;;;;5075843;28;20215;-77
2021/01/14 02:50:15;;;;;;;2.47;2.37;;;3.40;99.90;;;;;;5085201;28;20196;-77
2021/01/14 02:52:43;;;;;;;3.33;2.53;;;3.40;99.90;;;;;;5082882;28;20446;-76
2021/01/14 02:55:11;;;;;;;4.50;2.90;;;3.40;99.90;;;;;;5080244;28;20536;-77
2021/01/14 02:57:39;;;;;;;2.60;2.40;;;3.40;99.90;;;;;;5084727;28;20477;-77
2021/01/14 03:00:05;;;;;;;2.30;2.20;;;3.30;99.90;;;;;;5079873;28;20936;-76
2021/01/14 03:02:30;;;;;;;5.60;2.27;;;3.30;99.90;;;;;;5080008;28;20513;-76
2021/01/14 03:04:56;;;;;;;2.50;2.10;;;3.30;99.90;;;;;;5077845;28;20467;-77
2021/01/14 03:07:21;;;;;;;2.47;2.23;;;3.30;99.90;;;;;;5082721;28;20181;-76
2021/01/14 03:09:47;;;;;;;4.30;2.10;;;3.30;99.90;;;;;;5083477;28;20192;-77
2021/01/14 03:12:12;;;;;;;2.43;2.23;;;3.30;99.90;;;;;;5083059;28;20216;-77
2021/01/14 03:14:38;;;;;;;4.63;2.60;;;3.30;99.90;;;;;;5082035;28;20205;-77
2021/01/14 03:17:03;;;;;;;2.57;2.37;;;3.20;99.90;;;;;;5082424;28;20191;-76
2021/01/14 03:19:29;;;;;;;2.93;2.63;;;3.20;99.90;;;;;;5080752;28;20237;-77
2021/01/14 03:21:59;;;;;;;4.73;1.97;;;3.20;99.90;;;;;;5081251;28;20675;-77
2021/01/14 03:24:25;;;;;;;3.30;2.70;;;3.20;99.90;;;;;;5081500;28;20197;-77
2021/01/14 03:26:50;;;;;;;3.03;2.83;;;3.20;99.90;;;;;;5079466;28;20453;-77
2021/01/14 03:29:16;;;;;;;3.20;1.90;;;3.20;99.90;;;;;;5084683;28;20669;-76
2021/01/14 03:31:41;;;;;;;2.77;2.37;;;3.20;99.90;;;;;;5080909;28;20228;-76
2021/01/14 03:34:07;;;;;;;4.37;2.70;;;3.20;99.90;;;;;;5082420;28;20210;-77
2021/01/14 03:36:32;;;;;;;2.87;2.67;;;3.20;99.90;;;;;;5080752;28;20202;-77
2021/01/14 03:38:58;;;;;;;3.10;2.90;;;3.10;99.90;;;;;;5077526;28;20659;-76
2021/01/14 03:41:24;;;;;;;3.43;2.90;;;3.10;99.90;;;;;;5073892;28;20176;-76
2021/01/14 03:43:49;;;;;;;2.70;2.50;;;3.10;99.90;;;;;;5083755;28;20855;-76
2021/01/14 03:46:17;;;;;;;3.67;2.47;;;3.00;99.90;;;;;;5084740;28;20187;-76
2021/01/14 03:48:44;;;;;;;3.03;2.43;;;3.00;99.90;;;;;;5079074;28;20185;-76
2021/01/14 03:51:23;;;;;;;5.33;2.60;;;3.00;99.90;;;;;;5082824;28;20473;-76
2021/01/14 03:53:52;;;;;;;4.70;3.17;;;2.90;99.90;;;;;;5082946;28;20478;-76
2021/01/14 03:56:18;;;;;;;2.87;2.50;;;2.90;99.90;;;;;;5080440;28;21051;-76
2021/01/14 03:58:44;;;;;;;3.83;3.10;;;2.90;99.90;;;;;;5078353;28;20417;-76
2021/01/14 04:01:10;;;;;;;3.07;2.33;;;2.80;99.90;;;;;;5082150;28;20433;-76
2021/01/14 04:03:42;;;;;;;3.67;3.20;;;2.80;99.90;;;;;;5076962;28;20983;-76
2021/01/14 04:06:10;;;;;;;3.70;2.80;;;2.70;99.90;;;;;;5082778;28;20487;-76
2021/01/14 04:08:35;;;;;;;4.20;2.90;;;2.70;99.90;;;;;;5080865;28;20416;-76
2021/01/14 04:11:01;;;;;;;3.90;2.67;;;2.70;99.90;;;;;;5079923;28;20957;-76
2021/01/14 04:13:27;;;;;;;4.03;3.13;;;2.70;99.90;;;;;;5083792;28;20658;-76
2021/01/14 04:15:52;;;;;;;2.60;2.20;;;2.70;99.90;;;;;;5080269;28;20646;-76
2021/01/14 04:18:18;;;;;;;9.93;2.83;;;2.70;99.90;;;;;;5079895;28;20268;-76
2021/01/14 04:20:43;;;;;;;3.10;2.80;;;2.60;99.90;;;;;;5079486;28;20743;-76
2021/01/14 04:23:09;;;;;;;3.93;3.60;;;2.60;99.90;;;;;;5082148;28;20184;-76
2021/01/14 04:25:34;;;;;;;5.73;2.80;;;2.60;99.90;;;;;;5080651;28;20219;-77
2021/01/14 04:28:01;;;;;;;2.60;2.40;;;2.50;99.90;;;;;;5081558;28;20177;-77
2021/01/14 04:30:27;;;;;;;3.40;2.30;;;2.50;99.90;;;;;;5081849;28;20237;-76
2021/01/14 04:33:12;;;;;;;3.70;3.40;;;2.60;99.90;;;;;;5078808;28;20457;-77
2021/01/14 04:35:49;;;;;;;6.17;4.13;;;2.60;99.90;;;;;;5075950;28;20520;-76
2021/01/14 04:38:19;;;;;;;6.37;3.20;;;2.60;99.90;;;;;;5083389;28;20936;-76
2021/01/14 04:40:46;;;;;;;3.07;2.87;;;2.50;99.90;;;;;;5073406;28;20431;-76
2021/01/14 04:43:13;;;;;;;4.87;4.03;;;2.50;99.90;;;;;;5082816;28;20405;-76
2021/01/14 04:45:43;;;;;;;6.90;3.80;;;2.40;99.90;;;;;;5080640;28;20486;-76
2021/01/14 04:48:12;;;;;;;6.30;3.80;;;2.40;99.90;;;;;;5077873;28;20466;-76
2021/01/14 04:50:38;;;;;;;7.17;3.97;;;2.40;99.90;;;;;;5077425;28;20442;-76
2021/01/14 04:53:06;;;;;;;5.73;4.27;;;2.40;99.90;;;;;;5076801;28;20572;-76
2021/01/14 04:55:43;;;;;;;3.90;3.50;;;2.30;99.90;;;;;;5082666;28;20836;-76
2021/01/14 04:58:17;;;;;;;5.00;4.50;;;2.30;99.90;;;;;;5077967;28;20903;-76
2021/01/14 05:00:49;;;;;;;7.13;4.40;;;2.20;99.90;;;;;;5082548;28;20408;-76
2021/01/14 05:03:21;;;;;;;7.80;3.93;;;2.20;99.90;;;;;;5071136;28;20468;-77
2021/01/14 05:05:48;;;;;;;7.70;4.00;;;2.20;99.90;;;;;;5080506;28;20410;-77
2021/01/14 05:08:15;;;;;;;8.03;4.77;;;2.10;99.90;;;;;;5081114;28;20866;-76
2021/01/14 05:10:43;;;;;;;7.00;3.80;;;2.10;99.90;;;;;;5082338;28;20494;-76
2021/01/14 05:13:09;;;;;;;6.97;4.07;;;2.20;99.90;;;;;;5077765;28;20435;-77
2021/01/14 05:15:35;;;;;;;5.93;4.03;;;2.10;99.90;;;;;;5077504;28;20520;-77
2021/01/14 05:18:01;;;;;;;3.83;3.43;;;2.00;99.90;;;;;;5079822;28;20184;-76
2021/01/14 05:20:27;;;;;;;7.90;4.10;;;2.00;99.90;;;;;;5079032;28;20437;-76
2021/01/14 05:22:58;;;;;;;5.07;4.33;;;2.00;99.90;;;;;;5077951;28;20198;-77
2021/01/14 05:25:24;;;;;;;5.40;3.80;;;2.00;99.90;;;;;;5071309;28;20461;-76
2021/01/14 05:27:50;;;;;;;9.20;4.03;;;1.90;99.90;;;;;;5084129;28;20934;-76
2021/01/14 05:30:16;;;;;;;7.40;4.77;;;1.90;99.90;;;;;;5076582;28;20234;-77
2021/01/14 05:32:43;;;;;;;5.80;4.70;;;1.90;99.90;;;;;;5078926;28;20218;-76
2021/01/14 05:35:11;;;;;;;11.57;4.53;;;1.90;99.90;;;;;;5075200;28;20471;-76
2021/01/14 05:37:44;;;;;;;10.43;3.80;;;1.90;99.90;;;;;;5075679;28;20445;-76
2021/01/14 05:40:21;;;;;;;5.50;4.03;;;1.90;99.90;;;;;;5075220;28;20404;-76
2021/01/14 05:43:04;;;;;;;8.20;4.93;;;1.90;99.90;;;;;;5082618;28;20418;-76
2021/01/14 05:45:30;;;;;;;7.93;4.60;;;1.90;99.90;;;;;;5075426;28;20535;-77
2021/01/14 05:48:11;;;;;;;7.37;4.53;;;1.90;99.90;;;;;;5078247;28;20442;-76
2021/01/14 05:50:46;;;;;;;5.53;4.63;;;1.90;99.90;;;;;;5078869;28;20391;-76
2021/01/14 05:53:13;;;;;;;4.87;4.23;;;2.00;99.90;;;;;;5080644;28;20795;-76
2021/01/14 05:55:43;;;;;;;5.60;4.50;;;2.00;99.90;;;;;;5079306;28;20436;-76
2021/01/14 05:58:16;;;;;;;6.20;4.40;;;2.00;99.90;;;;;;5071427;28;20529;-76
2021/01/14 06:00:44;;;;;;;10.77;4.77;;;2.00;99.90;;;;;;5079174;28;20412;-76
2021/01/14 06:03:26;;;;;;;6.90;4.43;;;2.00;99.90;;;;;;5079094;28;20419;-76
2021/01/14 06:05:53;;;;;;;6.40;4.53;;;2.00;99.90;;;;;;5075696;28;20432;-76
2021/01/14 06:08:24;;;;;;;9.13;5.40;;;2.00;99.90;;;;;;5077239;28;20413;-77
2021/01/14 06:10:50;;;;;;;9.73;5.60;;;2.10;99.90;;;;;;5075247;28;20405;-76
2021/01/14 06:13:16;;;;;;;5.07;4.50;;;2.10;99.90;;;;;;5078206;28;20811;-76
2021/01/14 06:15:42;;;;;;;9.80;5.80;;;2.10;99.90;;;;;;5081710;28;20558;-76
2021/01/14 06:18:12;;;;;;;12.03;7.97;;;2.10;99.90;;;;;;5072895;28;20260;-76
2021/01/14 06:20:53;;;;;;;12.57;5.77;;;2.10;99.90;;;;;;5080869;28;20391;-76
2021/01/14 06:23:22;;;;;;;10.83;5.70;;;2.10;99.90;;;;;;5077680;28;20958;-76
2021/01/14 06:25:49;;;;;;;10.27;6.50;;;2.10;99.90;;;;;;5079391;28;20944;-76
2021/01/14 06:28:16;;;;;;;13.30;6.13;;;2.10;99.90;;;;;;5080403;28;20451;-76
2021/01/14 06:31:02;;;;;;;7.87;5.20;;;2.10;99.90;;;;;;5075933;28;20416;-77
2021/01/14 06:33:29;;;;;;;14.60;5.90;;;2.10;99.90;;;;;;5074754;28;20636;-77
2021/01/14 06:36:08;;;;;;;8.60;6.00;;;2.10;99.90;;;;;;5076550;28;20503;-76
2021/01/14 06:38:45;;;;;;;7.70;5.93;;;2.10;99.90;;;;;;5081121;28;20722;-76
2021/01/14 06:41:19;;;;;;;9.90;6.70;;;2.10;99.90;;;;;;5073494;28;20768;-77
2021/01/14 06:43:47;;;;;;;15.30;8.57;;;2.10;99.90;;;;;;5079541;28;20467;-77
2021/01/14 06:46:21;;;;;;;10.03;9.03;;;2.10;99.90;;;;;;5079615;28;20579;-76
2021/01/14 06:49:04;;;;;;;8.77;6.63;;;2.10;99.90;;;;;;5073827;28;20443;-76
2021/01/14 06:51:57;;;;;;;10.60;6.90;;;2.00;99.90;;;;;;5074820;28;20834;-77
2021/01/14 06:54:26;;;;;;;8.10;7.27;;;2.00;99.90;;;;;;5075016;28;20425;-77
2021/01/14 06:57:14;;;;;;;10.83;6.73;;;2.00;99.90;;;;;;5073625;28;20454;-77
2021/01/14 06:59:40;;;;;;;11.20;6.57;;;2.00;99.90;;;;;;5080856;28;20425;-76
2021/01/14 07:02:06;;;;;;;7.60;6.80;;;2.00;99.90;;;;;;5077019;28;20409;-77
2021/01/14 07:04:42;;;;;;;8.53;7.03;;;2.00;99.90;;;;;;5083404;28;20686;-76
2021/01/14 07:07:23;;;;;;;13.73;7.57;;;2.00;99.90;;;;;;5080998;28;20336;-76
2021/01/14 07:10:04;;;;;;;11.33;7.67;;;2.00;99.90;;;;;;5082607;28;20420;-77
2021/01/14 07:12:52;;;;;;;10.30;8.33;;;1.90;99.90;;;;;;5076588;28;20469;-77
2021/01/14 07:15:18;;;;;;;11.17;8.50;;;2.00;99.90;;;;;;5078187;28;20455;-74
2021/01/14 07:17:45;;;;;;;12.70;8.40;;;2.00;99.90;;;;;;5082580;28;20417;-74
2021/01/14 07:20:13;;;;;;;9.70;7.30;;;2.00;99.90;;;;;;5082890;28;20195;-74
2021/01/14 07:22:56;;;;;;;8.13;6.87;;;2.10;99.90;;;;;;5079185;28;20444;-74
2021/01/14 07:25:25;;;;;;;9.90;7.50;;;2.10;99.90;;;;;;5074413;28;20473;-74
2021/01/14 07:27:51;;;;;;;13.03;7.77;;;2.20;99.90;;;;;;5077606;28;20451;-74
2021/01/14 07:30:18;;;;;;;12.00;8.67;;;2.10;99.90;;;;;;5079413;28;20481;-74
2021/01/14 07:32:57;;;;;;;8.57;7.10;;;2.20;99.90;;;;;;5082779;28;21160;-73
2021/01/14 07:35:41;;;;;;;10.03;7.63;;;2.20;99.90;;;;;;5079522;28;20476;-74
2021/01/14 07:38:17;;;;;;;12.47;7.67;;;2.10;99.90;;;;;;5081550;28;20419;-74
2021/01/14 07:40:45;;;;;;;9.40;7.30;;;2.10;99.90;;;;;;5074337;28;20403;-74
2021/01/14 07:43:12;;;;;;;8.20;7.33;;;2.20;99.90;;;;;;5081964;28;20973;-74
2021/01/14 07:45:38;;;;;;;18.20;9.77;;;2.10;99.90;;;;;;5079040;28;20524;-74
2021/01/14 07:48:24;;;;;;;14.30;7.90;;;2.10;99.90;;;;;;5074419;28;20511;-74
2021/01/14 07:51:00;;;;;;;9.43;7.60;;;2.20;99.90;;;;;;5074620;28;20433;-74
2021/01/14 07:53:26;;;;;;;9.30;8.17;;;2.20;99.90;;;;;;5078211;28;20418;-74
2021/01/14 07:55:53;;;;;;;20.83;8.10;;;2.20;99.90;;;;;;5078819;28;20481;-74
2021/01/14 07:58:21;;;;;;;11.10;8.10;;;2.20;99.90;;;;;;5079790;28;20439;-74
2021/01/14 08:01:06;;;;;;;14.63;7.30;;;2.20;99.90;;;;;;5083996;28;20459;-74
2021/01/14 08:03:34;;;;;;;12.30;8.27;;;2.20;99.90;;;;;;5083741;28;20477;-73
2021/01/14 08:06:15;;;;;;;11.87;7.90;;;2.20;99.90;;;;;;5083780;28;20437;-74
2021/01/14 08:08:41;;;;;;;7.83;7.13;;;2.20;99.90;;;;;;5077859;28;20431;-75
2021/01/14 08:11:11;;;;;;;9.87;7.53;;;2.20;99.90;;;;;;5081436;28;20438;-76
2021/01/14 08:13:58;;;;;;;10.67;7.10;;;2.20;99.90;;;;;;5080549;28;20180;-76
2021/01/14 08:16:37;;;;;;;10.50;7.90;;;2.20;99.90;;;;;;5110215;27;20546;-74
2021/01/14 08:19:34;;;;;;;12.70;7.67;;;2.10;99.90;;;;;;5072973;28;20445;-74
2021/01/14 08:22:00;;;;;;;8.47;7.00;;;2.10;99.90;;;;;;5078709;28;20419;-75
2021/01/14 08:24:33;;;;;;;10.63;7.93;;;2.20;99.90;;;;;;5081466;28;20449;-74
2021/01/14 08:27:01;;;;;;;7.70;6.77;;;2.20;99.90;;;;;;5081197;28;20426;-74
2021/01/14 08:29:31;;;;;;;9.60;7.50;;;2.20;99.90;;;;;;5077152;28;20436;-75
2021/01/14 08:31:57;;;;;;;9.53;7.63;;;2.20;99.90;;;;;;5083922;28;20385;-75
2021/01/14 08:34:24;;;;;;;9.40;7.00;;;2.20;99.90;;;;;;5074238;28;20491;-74
2021/01/14 08:36:53;;;;;;;10.23;7.47;;;2.20;99.90;;;;;;5080761;28;20210;-74
2021/01/14 08:39:21;;;;;;;15.27;7.17;;;2.20;99.90;;;;;;5078695;28;20933;-74
2021/01/14 08:41:49;;;;;;;9.77;7.23;;;2.20;99.90;;;;;;5077190;28;20938;-74
2021/01/14 08:44:16;;;;;;;7.67;6.40;;;2.20;99.90;;;;;;5079621;28;21151;-74
2021/01/14 08:46:47;;;;;;;9.23;7.30;;;2.20;99.90;;;;;;5079159;28;20957;-74
2021/01/14 08:49:17;;;;;;;10.33;7.40;;;2.20;99.90;;;;;;5077904;28;20537;-74
2021/01/14 08:51:43;;;;;;;13.20;8.60;;;2.20;99.90;;;;;;5072899;28;20409;-73
2021/01/14 08:54:10;;;;;;;12.23;7.73;;;2.20;99.90;;;;;;5081192;28;20454;-76
2021/01/14 08:56:36;;;;;;;11.10;6.70;;;2.20;99.90;;;;;;5079699;28;20498;-74
2021/01/14 08:59:13;;;;;;;8.27;7.10;;;2.20;99.90;;;;;;5082296;28;20470;-74
2021/01/14 09:01:39;;;;;;;11.33;7.17;;;2.20;99.90;;;;;;5079260;28;20433;-74
2021/01/14 09:04:06;;;;;;;13.13;7.27;;;2.20;99.90;;;;;;5079375;28;20454;-74
2021/01/14 09:06:38;;;;;;;10.17;8.10;;;2.20;99.90;;;;;;5078222;28;20440;-74
2021/01/14 09:09:09;;;;;;;10.50;7.80;;;2.30;99.90;;;;;;5080948;28;20447;-74
2021/01/14 09:11:35;;;;;;;15.80;7.10;;;2.30;99.90;;;;;;5081006;28;20425;-74
2021/01/14 09:14:13;;;;;;;12.27;7.00;;;2.30;99.90;;;;;;5075383;28;21017;-74
2021/01/14 09:16:40;;;;;;;11.60;8.33;;;2.30;99.90;;;;;;5081652;28;20433;-73
2021/01/14 09:19:27;;;;;;;9.73;7.97;;;2.30;99.90;;;;;;5076712;28;20791;-74
2021/01/14 09:21:53;;;;;;;9.70;7.67;;;2.30;99.90;;;;;;5075343;28;20797;-75
2021/01/14 09:24:19;;;;;;;10.60;7.30;;;2.30;99.90;;;;;;5078063;28;20419;-74
2021/01/14 09:26:49;;;;;;;10.33;7.77;;;2.40;99.90;;;;;;5080408;28;20261;-73
2021/01/14 09:29:15;;;;;;;11.10;8.33;;;2.40;99.90;;;;;;5077974;28;20980;-73
2021/01/14 09:31:42;;;;;;;8.40;7.50;;;2.40;99.90;;;;;;5081706;28;20401;-74
2021/01/14 09:34:07;;;;;;;7.40;6.50;;;2.40;99.90;;;;;;5073872;28;20459;-73
2021/01/14 09:36:33;;;;;;;15.80;8.03;;;2.30;99.90;;;;;;5080861;28;20485;-74
2021/01/14 09:39:01;;;;;;;13.43;8.33;;;2.30;99.90;;;;;;5075440;28;20593;-74
2021/01/14 09:41:29;;;;;;;12.43;8.27;;;2.40;99.90;;;;;;5077652;28;20176;-74
2021/01/14 09:44:13;;;;;;;14.37;8.70;;;2.40;99.90;;;;;;5077744;28;20931;-74
2021/01/14 09:46:44;;;;;;;14.13;9.07;;;2.40;99.90;;;;;;5080399;28;20390;-75
2021/01/14 09:49:12;;;;;;;14.17;8.40;;;2.40;99.90;;;;;;5075269;28;20530;-74
2021/01/14 09:51:42;;;;;;;9.60;8.20;;;2.40;99.90;;;;;;5080214;28;20422;-75
2021/01/14 09:54:10;;;;;;;12.70;8.13;;;2.50;99.90;;;;;;5080604;28;20422;-74
2021/01/14 09:56:50;;;;;;;15.10;8.87;;;2.50;99.90;;;;;;5074848;28;20480;-75
2021/01/14 09:59:33;;;;;;;12.20;8.70;;;2.50;99.90;;;;;;5079708;28;20883;-74
2021/01/14 10:02:13;;;;;;;12.43;8.63;;;2.50;99.90;;;;;;5074390;28;20415;-74
2021/01/14 10:04:54;;;;;;;9.60;8.67;;;2.50;99.90;;;;;;5077990;28;20533;-74
2021/01/14 10:07:21;;;;;;;10.50;7.20;;;2.60;99.90;;;;;;5073414;28;20484;-74
2021/01/14 10:09:50;;;;;;;13.03;9.23;;;2.60;99.90;;;;;;5079279;28;20457;-74
2021/01/14 10:12:15;;;;;;;12.70;8.27;;;2.50;99.90;;;;;;5079478;28;20432;-73
2021/01/14 10:14:41;;;;;;;12.23;7.83;;;2.50;99.90;;;;;;5081218;28;20393;-74
2021/01/14 10:17:08;;;;;;;11.43;7.93;;;2.50;99.90;;;;;;5074706;28;20177;-74
2021/01/14 10:19:46;;;;;;;12.87;7.23;;;2.50;99.90;;;;;;5079737;28;20393;-74
2021/01/14 10:22:11;;;;;;;13.13;7.10;;;2.60;99.90;;;;;;5079419;28;20904;-74
2021/01/14 10:24:37;;;;;;;11.73;6.73;;;2.60;99.90;;;;;;5079328;28;20502;-75
2021/01/14 10:27:19;;;;;;;9.83;6.70;;;2.60;99.90;;;;;;5078845;28;20399;-74
2021/01/14 10:29:46;;;;;;;14.33;7.23;;;2.70;99.90;;;;;;5076376;28;20190;-73
2021/01/14 10:32:15;;;;;;;12.50;7.67;;;2.60;99.90;;;;;;5082093;28;20410;-75
2021/01/14 10:34:49;;;;;;;13.10;7.40;;;2.60;99.90;;;;;;5082417;28;20430;-74
2021/01/14 10:37:26;;;;;;;12.03;7.00;;;2.70;99.90;;;;;;5085350;28;20731;-74
2021/01/14 10:39:57;;;;;;;8.60;7.20;;;2.80;99.90;;;;;;5074697;28;20408;-74
2021/01/14 10:42:29;;;;;;;9.30;6.60;;;2.80;99.90;;;;;;5075593;28;20432;-75
2021/01/14 10:44:57;;;;;;;8.30;5.70;;;2.80;99.90;;;;;;5075705;28;20816;-74
2021/01/14 10:47:23;;;;;;;7.67;6.70;;;2.80;99.90;;;;;;5077907;28;20459;-74
2021/01/14 10:49:49;;;;;;;15.00;7.57;;;2.80;99.90;;;;;;5079100;28;20935;-75
2021/01/14 10:52:14;;;;;;;11.07;6.93;;;2.80;99.90;;;;;;5085178;28;20173;-72
2021/01/14 10:54:40;;;;;;;10.50;6.90;;;2.80;99.90;;;;;;5080249;28;20209;-74
2021/01/14 10:57:05;;;;;;;10.53;6.70;;;2.80;99.90;;;;;;5084354;28;20552;-74
2021/01/14 10:59:31;;;;;;;10.33;6.73;;;2.90;99.90;;;;;;5081397;28;20210;-74
2021/01/14 11:02:08;;;;;;;9.50;5.97;;;2.90;99.90;;;;;;5080058;28;20597;-73
2021/01/14 11:04:33;;;;;;;10.63;6.30;;;2.90;99.90;;;;;;5081438;28;20436;-74
2021/01/14 11:07:10;;;;;;;6.87;6.17;;;2.80;99.90;;;;;;5076664;28;20414;-74
2021/01/14 11:09:48;;;;;;;7.40;5.50;;;2.80;99.90;;;;;;5082829;28;20233;-75
2021/01/14 11:12:14;;;;;;;5.90;5.40;;;2.80;99.90;;;;;;5081678;28;20539;-75
2021/01/14 11:14:39;;;;;;;9.83;5.97;;;2.80;99.90;;;;;;5083406;28;20471;-74
2021/01/14 11:17:05;;;;;;;11.10;6.97;;;2.80;99.90;;;;;;5080300;28;20180;-74
2021/01/14 11:19:30;;;;;;;7.90;6.53;;;2.80;99.90;;;;;;5080200;28;20662;-75
2021/01/14 11:21:56;;;;;;;11.67;7.13;;;2.80;99.90;;;;;;5081234;28;20182;-73
2021/01/14 11:24:21;;;;;;;8.30;6.90;;;2.70;99.90;;;;;;5079925;28;20200;-74
2021/01/14 11:26:50;;;;;;;10.00;6.30;;;2.70;99.90;;;;;;5080688;28;20188;-75
2021/01/14 11:29:16;;;;;;;12.63;7.17;;;2.70;99.90;;;;;;5084471;28;20266;-74
2021/01/14 11:31:41;;;;;;;11.70;6.40;;;2.70;99.90;;;;;;5082839;28;20483;-75
2021/01/14 11:34:07;;;;;;;7.27;5.93;;;2.70;99.90;;;;;;5074155;28;20266;-74
2021/01/14 11:36:32;;;;;;;7.33;4.70;;;2.70;99.90;;;;;;5084374;28;20222;-74
2021/01/14 11:38:58;;;;;;;9.37;6.77;;;2.80;99.90;;;;;;5081009;28;20184;-75
2021/01/14 11:41:25;;;;;;;10.80;6.77;;;2.80;99.90;;;;;;5078420;28;20184;-75
2021/01/14 11:43:51;;;;;;;12.93;6.40;;;2.70;99.90;;;;;;5074676;28;20286;-74
2021/01/14 11:46:20;;;;;;;17.40;6.00;;;2.80;99.90;;;;;;5081916;28;20978;-75
2021/01/14 11:48:46;;;;;;;9.40;5.27;;;2.80;99.90;;;;;;5074742;28;20179;-74
2021/01/14 11:51:12;;;;;;;11.20;5.43;;;2.80;99.90;;;;;;5082234;28;20434;-74
2021/01/14 11:53:38;;;;;;;11.27;5.50;;;2.80;99.90;;;;;;5079724;28;20222;-74
2021/01/14 11:56:05;;;;;;;11.60;8.00;;;2.80;99.90;;;;;;5077836;28;20231;-74
2021/01/14 11:58:30;;;;;;;6.90;6.20;;;2.80;99.90;;;;;;5082331;28;20423;-74
2021/01/14 12:00:56;;;;;;;14.70;6.03;;;2.80;99.90;;;;;;5082725;28;20457;-74
2021/01/14 12:03:21;;;;;;;8.80;7.50;;;2.80;99.90;;;;;;5079296;28;20646;-74
2021/01/14 12:05:47;;;;;;;7.40;5.27;;;2.80;99.90;;;;;;5076728;28;20679;-74
2021/01/14 12:08:13;;;;;;;9.93;7.47;;;3.00;99.90;;;;;;5081128;28;20201;-74
2021/01/14 12:10:38;;;;;;;7.70;5.73;;;3.00;99.90;;;;;;5079848;28;20694;-74
2021/01/14 12:13:04;;;;;;;9.13;7.60;;;3.10;99.90;;;;;;5083298;28;20228;-74
2021/01/14 12:15:29;;;;;;;10.40;6.30;;;3.20;99.90;;;;;;5079833;28;20218;-74
2021/01/14 12:17:55;;;;;;;6.00;5.20;;;3.20;99.90;;;;;;5075197;28;20184;-74
2021/01/14 12:20:20;;;;;;;5.97;4.93;;;3.30;99.90;;;;;;5074831;28;20176;-74
2021/01/14 12:22:46;;;;;;;9.73;5.37;;;3.20;99.90;;;;;;5079834;28;20267;-74
2021/01/14 12:25:12;;;;;;;9.40;5.97;;;3.20;99.90;;;;;;5081775;28;20666;-76
2021/01/14 12:27:40;;;;;;;13.67;5.07;;;3.20;99.90;;;;;;5079908;28;20181;-77
2021/01/14 12:30:07;;;;;;;9.60;6.97;;;3.20;99.90;;;;;;5081842;28;20512;-74
2021/01/14 12:32:33;;;;;;;7.53;6.00;;;3.20;99.90;;;;;;5077142;28;20428;-74
2021/01/14 12:34:59;;;;;;;10.23;5.73;;;3.20;99.90;;;;;;5080729;28;20538;-75
2021/01/14 12:37:30;;;;;;;9.30;4.83;;;3.30;99.90;;;;;;5078321;28;20238;-75
2021/01/14 12:39:55;;;;;;;9.03;5.93;;;3.30;99.90;;;;;;5071868;28;20438;-76
2021/01/14 12:42:21;;;;;;;7.43;4.77;;;3.40;99.90;;;;;;5073903;28;20447;-75
2021/01/14 12:44:46;;;;;;;9.53;5.07;;;3.40;99.90;;;;;;5079973;28;20309;-75
2021/01/14 12:47:12;;;;;;;5.40;4.90;;;3.40;99.90;;;;;;5082598;28;20239;-75
2021/01/14 12:49:37;;;;;;;8.70;5.27;;;3.40;99.90;;;;;;5076465;28;20183;-75
2021/01/14 12:52:03;;;;;;;12.33;6.87;;;3.40;99.90;;;;;;5082722;28;20184;-74
2021/01/14 12:54:28;;;;;;;8.87;5.53;;;3.30;99.90;;;;;;5078302;28;20225;-74
2021/01/14 12:56:54;;;;;;;5.77;4.83;;;3.30;99.90;;;;;;5082821;28;20205;-74
2021/01/14 12:59:19;;;;;;;10.33;6.27;;;3.30;99.90;;;;;;5078543;28;20176;-73
2021/01/14 13:01:45;;;;;;;7.83;5.53;;;3.30;99.90;;;;;;5077185;28;20215;-74
2021/01/14 13:04:11;;;;;;;7.17;5.03;;;3.20;99.90;;;;;;5075137;28;20233;-74